Time;durP1;ratioP1;P1;durP2;ratioP2;P2;SDS_P1;SDS_P2;PMS_P1;PMS_P2;Temp;Humidity;BMP_temperature;BMP_pressure;BME280_temperature;BME280_humidity;BME280_pressure;Samples;Min_cycle;Max_cycle;Signal;HPM_P1;HPM_P2
2023/04/17 00:00:12;;;;;;;;;;;10.90;67.50;;;6.36;100.00;95805.53;5029109;22;20450;-53
2023/04/17 00:02:38;;;;;;;;;;;10.90;67.50;;;6.39;100.00;95802.41;5011314;28;20011;-53
2023/04/17 00:05:07;;;;;;;;;;;10.80;67.40;;;6.36;100.00;95798.41;5012997;28;19962;-52
2023/04/17 00:07:37;;;;;;;;;;;10.90;67.60;;;6.36;100.00;95792.28;5012771;28;19954;-55
2023/04/17 00:10:09;;;;;;;;;;;10.90;67.50;;;6.37;100.00;95791.28;5014032;28;19909;-51
2023/04/17 00:12:35;;;;;;;;;;;10.90;67.50;;;6.36;100.00;95787.81;4999490;28;19962;-51
2023/04/17 00:15:02;;;;;;;;;;;10.90;67.50;;;6.37;100.00;95793.91;4963948;28;19913;-51
2023/04/17 00:17:28;;;;;;;;;;;10.90;67.60;;;6.40;100.00;95790.81;4977654;28;19952;-51
2023/04/17 00:19:53;;;;;;;;;;;10.90;67.60;;;6.38;100.00;95791.03;4985555;28;19961;-54
2023/04/17 00:22:19;;;;;;;;;;;10.90;67.70;;;6.41;100.00;95790.56;4992470;28;19910;-54
2023/04/17 00:24:45;;;;;;;;;;;10.90;68.50;;;6.43;100.00;95790.34;4977968;28;20462;-54
2023/04/17 00:27:10;;;;;;;;;;;10.90;67.70;;;6.41;100.00;95790.56;4995553;28;19932;-49
2023/04/17 00:29:36;;;;;;;;;;;10.90;68.40;;;6.40;100.00;95796.91;4996900;28;19913;-54
2023/04/17 00:32:03;;;;;;;;;;;10.90;67.70;;;6.41;100.00;95789.75;4995794;28;20281;-55
2023/04/17 00:34:29;;;;;;;;;;;10.90;67.70;;;6.39;100.00;95786.53;4996847;28;20230;-50
2023/04/17 00:36:55;;;;;;;;;;;10.90;67.70;;;6.42;100.00;95786.88;4995782;28;20281;-52
2023/04/17 00:39:21;;;;;;;;;;;10.90;67.60;;;6.39;100.00;95771.50;4995974;28;19909;-49
2023/04/17 00:41:46;;;;;;;;;;;10.90;67.60;;;6.41;100.00;95779.97;4996477;28;19920;-53
2023/04/17 00:44:12;;;;;;;;;;;10.90;67.60;;;6.41;100.00;95772.03;4995779;28;19932;-50
2023/04/17 00:46:39;;;;;;;;;;;10.90;67.70;;;6.41;100.00;95772.03;4996863;28;20275;-53
2023/04/17 00:49:05;;;;;;;;;;;10.90;67.70;;;6.43;100.00;95780.56;4995627;28;19916;-51
2023/04/17 00:51:32;;;;;;;;;;;11.00;67.80;;;6.46;100.00;95772.16;5009151;28;19913;-49
2023/04/17 00:53:59;;;;;;;;;;;10.90;67.70;;;6.45;100.00;95773.16;5015664;28;19917;-54
2023/04/17 00:56:26;;;;;;;;;;;10.90;67.70;;;6.44;100.00;95774.22;4983769;28;20364;-49
2023/04/17 00:58:53;;;;;;;;;;;11.00;67.80;;;6.44;100.00;95762.84;4979250;28;19919;-51
2023/04/17 01:01:18;;;;;;;;;;;11.00;67.80;;;6.45;100.00;95765.22;4973648;28;19917;-53
2023/04/17 01:03:44;;;;;;;;;;;11.00;67.80;;;6.46;100.00;95760.78;4975477;28;19917;-51
2023/04/17 01:06:11;;;;;;;;;;;11.00;67.70;;;6.45;100.00;95757.28;4976704;28;19913;-54
2023/04/17 01:08:41;;;;;;;;;;;11.00;67.70;;;6.44;100.00;95760.19;4990566;28;19916;-54
2023/04/17 01:11:09;;;;;;;;;;;11.00;67.70;;;6.46;100.00;95758.13;4994604;28;20387;-54
2023/04/17 01:13:49;;;;;;;;;;;11.00;67.70;;;6.48;100.00;95756.81;4994860;28;19984;-56
2023/04/17 01:16:16;;;;;;;;;;;11.10;67.70;;;6.44;100.00;95761.00;4994928;28;19913;-55
2023/04/17 01:18:42;;;;;;;;;;;11.10;67.70;;;6.44;100.00;95763.63;4995922;28;19932;-51
2023/04/17 01:21:09;;;;;;;;;;;11.10;67.70;;;6.46;100.00;95764.22;5002226;28;20274;-56
2023/04/17 01:23:53;;;;;;;;;;;11.10;67.70;;;6.45;100.00;95759.13;4997643;28;19959;-49
2023/04/17 01:26:21;;;;;;;;;;;11.10;67.70;;;6.45;100.00;95752.00;5001244;28;19910;-53
2023/04/17 01:28:56;;;;;;;;;;;11.10;67.70;;;6.44;100.00;95752.25;4994145;28;20330;-54
2023/04/17 01:31:23;;;;;;;;;;;11.10;67.70;;;6.45;100.00;95746.72;4994233;28;20387;-52
2023/04/17 01:33:50;;;;;;;;;;;11.10;67.70;;;6.47;100.00;95752.59;4995354;28;19960;-51
2023/04/17 01:36:17;;;;;;;;;;;11.00;67.70;;;6.47;100.00;95749.94;4995502;28;19916;-53
2023/04/17 01:38:43;;;;;;;;;;;11.00;67.70;;;6.49;100.00;95749.72;4994474;28;19937;-53
2023/04/17 01:41:09;;;;;;;;;;;11.00;67.80;;;6.49;100.00;95745.22;4994455;28;20038;-54
2023/04/17 01:43:42;;;;;;;;;;;11.00;67.70;;;6.50;100.00;95746.03;4994863;28;20370;-51
2023/04/17 01:46:08;;;;;;;;;;;11.00;67.80;;;6.51;100.00;95750.28;4978096;28;19940;-53
2023/04/17 01:48:34;;;;;;;;;;;11.10;68.00;;;6.49;100.00;95749.72;4995420;28;19909;-55
2023/04/17 01:51:00;;;;;;;;;;;11.00;67.80;;;6.47;100.00;95751.78;4976498;28;19932;-53
2023/04/17 01:53:29;;;;;;;;;;;11.10;67.90;;;6.47;100.00;95751.78;4995752;28;20298;-54
2023/04/17 01:55:55;;;;;;;;;;;11.00;67.80;;;6.47;100.00;95744.66;4994844;28;20036;-50
2023/04/17 01:58:21;;;;;;;;;;;11.00;67.80;;;6.48;100.00;95740.16;4995811;28;20446;-52
2023/04/17 02:00:48;;;;;;;;;;;11.00;67.80;;;6.47;100.00;95743.84;4994122;28;19926;-50
2023/04/17 02:03:14;;;;;;;;;;;11.00;67.80;;;6.46;100.00;95739.59;4992952;28;20387;-55
2023/04/17 02:05:40;;;;;;;;;;;11.00;67.80;;;6.43;100.00;95740.06;4994722;28;20015;-56
2023/04/17 02:08:06;;;;;;;;;;;11.10;67.80;;;6.44;100.00;95734.53;4993740;28;19952;-55
2023/04/17 02:10:32;;;;;;;;;;;11.00;67.70;;;6.43;100.00;95729.47;4993191;28;19948;-55
2023/04/17 02:12:58;;;;;;;;;;;11.00;67.80;;;6.43;100.00;95730.28;4993663;28;19909;-54
2023/04/17 02:15:24;;;;;;;;;;;11.00;67.80;;;6.47;100.00;95738.56;4994089;28;19967;-55
2023/04/17 02:17:49;;;;;;;;;;;11.00;67.80;;;6.48;100.00;95735.66;4994327;28;19920;-52
2023/04/17 02:20:15;;;;;;;;;;;11.00;67.80;;;6.47;100.00;95735.91;4993302;28;19944;-56
2023/04/17 02:22:42;;;;;;;;;;;11.10;68.00;;;6.47;100.00;95725.31;4994492;28;20394;-55
2023/04/17 02:25:08;;;;;;;;;;;11.10;68.00;;;6.51;100.00;95729.09;4993167;28;19918;-56
2023/04/17 02:27:35;;;;;;;;;;;11.10;67.90;;;6.50;100.00;95732.78;4993964;28;19916;-54
2023/04/17 02:30:01;;;;;;;;;;;11.10;67.90;;;6.45;100.00;95730.84;4993539;28;19909;-56
2023/04/17 02:32:27;;;;;;;;;;;11.10;67.80;;;6.28;100.00;95732.63;5005058;28;19909;-56
2023/04/17 02:34:53;;;;;;;;;;;11.10;67.70;;;6.24;100.00;95731.47;5012662;28;19988;-56
2023/04/17 02:37:19;;;;;;;;;;;11.10;67.60;;;6.25;100.00;95741.81;5008395;28;19917;-56
2023/04/17 02:39:46;;;;;;;;;;;11.00;67.60;;;6.21;100.00;95737.25;4993890;28;19913;-55
2023/04/17 02:42:11;;;;;;;;;;;11.00;67.60;;;6.13;100.00;95735.75;4976332;28;20326;-56
2023/04/17 02:44:41;;;;;;;;;;;10.90;67.60;;;6.14;100.00;95728.59;4991325;28;19909;-56
2023/04/17 02:47:07;;;;;;;;;;;10.90;67.60;;;6.18;100.00;95733.22;4993599;28;19913;-54
2023/04/17 02:49:33;;;;;;;;;;;10.90;67.70;;;6.20;100.00;95739.06;4992769;28;19958;-56
2023/04/17 02:51:59;;;;;;;;;;;10.90;67.70;;;6.22;100.00;95733.53;4993694;28;19925;-56
2023/04/17 02:54:24;;;;;;;;;;;10.90;67.80;;;6.25;100.00;95733.88;4993488;28;19914;-56
2023/04/17 02:56:51;;;;;;;;;;;10.90;67.80;;;6.27;100.00;95736.31;4992337;28;19909;-55
2023/04/17 02:59:17;;;;;;;;;;;10.90;67.80;;;6.23;100.00;95735.94;4993193;28;19916;-54
2023/04/17 03:01:44;;;;;;;;;;;11.00;68.00;;;6.22;100.00;95737.00;4992435;28;19909;-55
2023/04/17 03:04:10;;;;;;;;;;;10.90;67.70;;;6.20;100.00;95739.06;4993362;28;19916;-55
2023/04/17 03:06:36;;;;;;;;;;;10.90;67.70;;;6.19;100.00;95726.88;4993124;28;20398;-56
2023/04/17 03:09:02;;;;;;;;;;;10.90;67.70;;;6.21;100.00;95724.00;4991918;28;19910;-56
2023/04/17 03:11:28;;;;;;;;;;;10.90;67.70;;;6.22;100.00;95730.91;4975692;28;19909;-56
2023/04/17 03:13:54;;;;;;;;;;;10.90;67.70;;;6.21;100.00;95730.09;4991863;28;19929;-56
2023/04/17 03:16:19;;;;;;;;;;;10.90;67.70;;;6.19;100.00;95726.88;4992905;28;19909;-52
2023/04/17 03:18:45;;;;;;;;;;;10.90;67.70;;;6.16;100.00;95732.63;4993008;28;19913;-56
2023/04/17 03:21:11;;;;;;;;;;;10.90;67.70;;;6.14;100.00;95731.25;4993172;28;19941;-56
2023/04/17 03:23:36;;;;;;;;;;;10.90;67.70;;;6.12;100.00;95728.84;4995345;28;19935;-56
2023/04/17 03:26:02;;;;;;;;;;;10.90;67.60;;;6.09;100.00;95724.03;4994369;28;19916;-55
2023/04/17 03:28:28;;;;;;;;;;;10.80;67.60;;;6.06;100.00;95729.78;4995721;28;19909;-56
2023/04/17 03:30:56;;;;;;;;;;;10.80;67.60;;;6.01;100.00;95724.38;4994690;28;19913;-56
2023/04/17 03:33:22;;;;;;;;;;;10.80;67.60;;;5.95;100.00;95736.66;4995902;28;19910;-56
2023/04/17 03:35:48;;;;;;;;;;;10.80;67.60;;;5.93;100.00;95736.13;4996616;28;20295;-56
2023/04/17 03:38:13;;;;;;;;;;;10.80;67.60;;;5.92;100.00;95737.13;4995020;28;19913;-55
2023/04/17 03:40:40;;;;;;;;;;;10.80;67.60;;;5.94;100.00;95735.06;4995988;28;19916;-56
2023/04/17 03:43:06;;;;;;;;;;;10.70;67.50;;;5.95;100.00;95735.88;4993528;28;19913;-56
2023/04/17 03:45:32;;;;;;;;;;;10.70;67.60;;;5.86;100.00;95745.16;4996133;28;20368;-56
2023/04/17 03:47:57;;;;;;;;;;;10.70;68.40;;;5.88;100.00;95737.81;4996556;28;19945;-56
2023/04/17 03:50:23;;;;;;;;;;;10.70;67.60;;;5.86;100.00;95743.34;4995784;28;19910;-55
2023/04/17 03:52:49;;;;;;;;;;;10.70;67.60;;;5.89;100.00;95745.53;4995696;28;19917;-53
2023/04/17 03:55:17;;;;;;;;;;;10.60;67.70;;;5.91;100.00;95740.78;4993717;28;26921;-54
2023/04/17 03:57:42;;;;;;;;;;;10.60;67.70;;;5.90;100.00;95747.13;4996472;28;19955;-55
2023/04/17 04:00:09;;;;;;;;;;;10.60;67.70;;;5.91;100.00;95746.06;4994544;28;19917;-51
2023/04/17 04:02:36;;;;;;;;;;;10.60;67.70;;;5.92;100.00;95737.13;4987846;28;19999;-53
2023/04/17 04:05:02;;;;;;;;;;;10.60;67.70;;;5.91;100.00;95740.78;4993882;28;19909;-56
2023/04/17 04:07:28;;;;;;;;;;;10.60;67.70;;;5.91;100.00;95740.00;4973818;28;19984;-55
2023/04/17 04:09:54;;;;;;;;;;;10.70;67.80;;;5.88;100.00;95737.81;4988147;28;20376;-56
2023/04/17 04:12:21;;;;;;;;;;;10.70;67.70;;;5.88;100.00;95740.44;4992581;28;19956;-54
2023/04/17 04:14:48;;;;;;;;;;;10.70;67.70;;;5.85;100.00;95748.84;5000036;28;20327;-56
2023/04/17 04:17:14;;;;;;;;;;;10.60;67.60;;;5.87;100.00;95742.28;4992830;28;19909;-55
2023/04/17 04:19:41;;;;;;;;;;;10.70;67.60;;;5.87;100.00;95739.66;4991640;28;19910;-56
2023/04/17 04:22:07;;;;;;;;;;;10.60;67.60;;;5.89;100.00;95745.53;4992348;28;19909;-56
2023/04/17 04:24:33;;;;;;;;;;;10.70;68.40;;;5.89;100.00;95744.69;4992375;28;19964;-55
2023/04/17 04:27:03;;;;;;;;;;;10.70;67.60;;;5.87;100.00;95736.22;4991246;28;19963;-56
2023/04/17 04:29:30;;;;;;;;;;;10.70;67.60;;;5.86;100.00;95742.50;4991494;28;19910;-56
2023/04/17 04:31:56;;;;;;;;;;;10.70;67.70;;;5.87;100.00;95747.59;4991420;28;19909;-53
2023/04/17 04:34:28;;;;;;;;;;;10.70;67.60;;;5.86;100.00;95745.97;4992565;28;20330;-54
2023/04/17 04:36:57;;;;;;;;;;;10.70;67.70;;;5.86;100.00;95747.81;4975684;28;19916;-56
2023/04/17 04:39:23;;;;;;;;;;;10.70;67.60;;;5.84;100.00;95745.41;4991752;28;19910;-52
2023/04/17 04:41:50;;;;;;;;;;;10.70;67.60;;;5.84;100.00;95750.69;4992618;28;19913;-56
2023/04/17 04:44:19;;;;;;;;;;;10.70;67.60;;;5.85;100.00;95762.06;4991387;28;19928;-54
2023/04/17 04:46:46;;;;;;;;;;;10.60;67.50;;;5.85;100.00;95760.22;4992474;28;19913;-56
2023/04/17 04:49:12;;;;;;;;;;;10.60;67.50;;;5.86;100.00;95761.00;4991354;28;20288;-53
2023/04/17 04:51:38;;;;;;;;;;;10.70;67.60;;;5.85;100.00;95754.94;4992299;28;19964;-53
2023/04/17 04:54:05;;;;;;;;;;;10.70;67.60;;;5.84;100.00;95755.19;4991965;28;20392;-55
2023/04/17 04:56:31;;;;;;;;;;;10.60;67.50;;;5.84;100.00;95758.63;4991602;28;19964;-56
2023/04/17 04:58:56;;;;;;;;;;;10.60;67.60;;;5.85;100.00;95760.22;4996270;28;20320;-56
2023/04/17 05:01:23;;;;;;;;;;;10.60;67.60;;;5.84;100.00;95755.97;4994941;28;19917;-56
2023/04/17 05:03:49;;;;;;;;;;;10.60;67.60;;;5.81;100.00;95759.06;4995718;28;20336;-56
2023/04/17 05:06:14;;;;;;;;;;;10.60;67.60;;;5.81;100.00;95764.38;4995246;28;20180;-50
2023/04/17 05:08:40;;;;;;;;;;;10.60;67.60;;;5.83;100.00;95764.13;4999231;28;19968;-55
2023/04/17 05:11:06;;;;;;;;;;;10.60;67.60;;;5.78;100.00;95765.63;4959328;28;23150;-55
2023/04/17 05:13:32;;;;;;;;;;;10.60;67.60;;;5.78;100.00;95767.47;4975194;28;19945;-55
2023/04/17 05:15:58;;;;;;;;;;;10.60;67.60;;;5.74;100.00;95774.25;4961212;28;19917;-52
2023/04/17 05:18:24;;;;;;;;;;;10.60;67.50;;;5.75;100.00;95768.72;4956935;28;19910;-56
2023/04/17 05:20:50;;;;;;;;;;;10.60;67.60;;;5.75;100.00;95770.56;4955348;28;19914;-55
2023/04/17 05:23:21;;;;;;;;;;;10.60;67.60;;;5.75;100.00;95776.66;4956920;28;19976;-55
2023/04/17 05:25:48;;;;;;;;;;;10.60;67.50;;;5.76;100.00;95774.81;4955722;28;19918;-56
2023/04/17 05:28:14;;;;;;;;;;;10.60;67.60;;;5.77;100.00;95779.88;4955543;28;19933;-48
2023/04/17 05:30:40;;;;;;;;;;;10.60;67.60;;;5.79;100.00;95777.78;4951381;28;20004;-51
2023/04/17 05:33:06;;;;;;;;;;;10.60;67.50;;;5.78;100.00;95776.19;4976982;28;19910;-52
2023/04/17 05:35:32;;;;;;;;;;;10.60;67.50;;;5.72;100.00;95777.09;4954926;28;19938;-51
2023/04/17 05:37:57;;;;;;;;;;;10.70;67.60;;;5.75;100.00;95779.28;4954430;28;19910;-51
2023/04/17 05:40:23;;;;;;;;;;;10.60;67.50;;;5.76;100.00;95788.81;4953323;28;19945;-55
2023/04/17 05:42:49;;;;;;;;;;;10.60;67.50;;;5.76;100.00;95786.19;4962469;28;19913;-55
2023/04/17 05:45:16;;;;;;;;;;;10.60;67.50;;;5.80;100.00;95790.00;4953345;28;19917;-54
2023/04/17 05:47:43;;;;;;;;;;;10.60;67.50;;;5.79;100.00;95787.56;4955194;28;19910;-53
2023/04/17 05:50:09;;;;;;;;;;;10.60;67.50;;;5.74;100.00;95785.63;4952261;28;20017;-55
2023/04/17 05:52:36;;;;;;;;;;;10.70;67.50;;;5.71;100.00;95786.09;4953566;28;20037;-52
2023/04/17 05:55:02;;;;;;;;;;;10.70;68.20;;;5.71;100.00;95786.09;4952758;28;19914;-56
2023/04/17 05:57:28;;;;;;;;;;;10.70;67.40;;;5.69;100.00;95784.69;4953783;28;19910;-52
2023/04/17 05:59:54;;;;;;;;;;;10.70;67.30;;;5.70;100.00;95792.41;4977215;23;20333;-51
2023/04/17 06:02:20;;;;;;;;;;;10.70;67.30;;;5.77;100.00;95790.47;5011326;28;19936;-55
2023/04/17 06:04:46;;;;;;;;;;;10.70;68.00;;;5.84;100.00;95785.06;5013250;28;19909;-48
2023/04/17 06:07:12;;;;;;;;;;;10.80;67.40;;;5.93;100.00;95789.00;5013105;28;19916;-52
2023/04/17 06:09:39;;;;;;;;;;;10.90;67.30;;;6.01;100.00;95790.47;5013965;28;19947;-52
2023/04/17 06:12:05;;;;;;;;;;;11.00;68.10;;;6.09;100.00;95790.16;5013858;28;19908;-51
2023/04/17 06:14:31;;;;;;;;;;;11.20;67.30;;;6.18;100.00;95791.41;5009458;28;19948;-51
2023/04/17 06:16:57;;;;;;;;;;;11.20;67.20;;;6.25;100.00;95791.28;4994296;28;19956;-54
2023/04/17 06:19:23;;;;;;;;;;;11.30;67.20;;;6.34;100.00;95797.03;4996738;28;19979;-53
2023/04/17 06:21:49;;;;;;;;;;;11.40;67.20;;;6.36;100.00;95792.28;5013480;28;19962;-53
2023/04/17 06:24:15;;;;;;;;;;;11.40;67.90;;;6.41;100.00;95792.41;5013515;28;19955;-53
2023/04/17 06:26:41;;;;;;;;;;;11.50;67.10;;;6.44;100.00;95797.25;5012806;28;19909;-51
2023/04/17 06:29:07;;;;;;;;;;;11.60;67.00;;;6.49;100.00;95794.72;5025986;28;20381;-55
2023/04/17 06:31:33;;;;;;;;;;;11.70;66.80;;;6.53;100.00;95801.13;5012457;28;19917;-54
2023/04/17 06:33:59;;;;;;;;;;;11.70;66.70;;;6.62;100.00;95797.09;5013671;28;20295;-54
2023/04/17 06:36:26;;;;;;;;;;;11.80;66.70;;;6.64;100.00;95802.13;5011553;28;19909;-54
2023/04/17 06:38:52;;;;;;;;;;;11.90;66.60;;;6.66;100.00;95802.72;5012382;28;20012;-55
2023/04/17 06:41:17;;;;;;;;;;;11.90;67.20;;;6.73;100.00;95798.09;5013338;28;19909;-54
2023/04/17 06:43:43;;;;;;;;;;;11.90;67.20;;;6.77;100.00;95804.53;5011997;28;19909;-49
2023/04/17 06:46:09;;;;;;;;;;;12.00;66.40;;;6.70;100.00;95796.69;4996223;28;19913;-52
2023/04/17 06:48:35;;;;;;;;;;;12.00;66.40;;;6.70;100.00;95804.66;4993327;28;20003;-52
2023/04/17 06:51:01;;;;;;;;;;;12.00;66.30;;;6.73;100.00;95804.19;5000671;28;19949;-55
2023/04/17 06:53:26;;;;;;;;;;;12.00;66.20;;;6.74;100.00;95802.34;4993345;28;20375;-49
2023/04/17 06:55:53;;;;;;;;;;;11.90;66.20;;;6.77;100.00;95804.53;4998319;28;20359;-51
2023/04/17 06:58:19;;;;;;;;;;;11.90;66.30;;;6.73;100.00;95806.81;5012822;28;20004;-52
2023/04/17 07:00:45;;;;;;;;;;;11.90;66.30;;;6.73;100.00;95808.66;5012403;28;19917;-49
2023/04/17 07:03:12;;;;;;;;;;;11.80;66.20;;;6.72;100.00;95810.53;5011845;28;19980;-51
2023/04/17 07:05:38;;;;;;;;;;;11.80;66.30;;;6.72;100.00;95807.06;5012906;28;20019;-53
2023/04/17 07:08:04;;;;;;;;;;;11.80;66.30;;;6.66;100.00;95814.09;5012062;28;20387;-50
2023/04/17 07:10:30;;;;;;;;;;;11.80;66.30;;;6.65;100.00;95815.16;5012656;28;20438;-54
2023/04/17 07:12:56;;;;;;;;;;;11.80;66.30;;;6.69;100.00;95820.78;5012410;28;19979;-54
2023/04/17 07:15:22;;;;;;;;;;;11.80;66.30;;;6.71;100.00;95821.34;5011864;28;19924;-54
2023/04/17 07:17:47;;;;;;;;;;;11.70;66.30;;;6.68;100.00;95819.19;5012431;28;19909;-53
2023/04/17 07:20:13;;;;;;;;;;;11.80;66.40;;;6.65;100.00;95830.22;5010935;28;19909;-53
2023/04/17 07:22:39;;;;;;;;;;;11.80;66.40;;;6.73;100.00;95825.34;5012517;28;20376;-54
2023/04/17 07:25:06;;;;;;;;;;;11.80;66.40;;;6.81;100.00;95823.41;5011663;28;20425;-53
2023/04/17 07:27:32;;;;;;;;;;;11.90;66.40;;;6.81;100.00;95828.69;5012531;28;19994;-49
2023/04/17 07:29:57;;;;;;;;;;;11.90;66.30;;;6.90;100.00;95822.78;5012121;28;20376;-50
2023/04/17 07:32:23;;;;;;;;;;;12.00;66.30;;;6.94;100.00;95823.13;5011113;28;19909;-54
2023/04/17 07:34:49;;;;;;;;;;;12.10;66.30;;;6.98;100.00;95832.19;5012008;28;19982;-53
2023/04/17 07:37:15;;;;;;;;;;;12.20;66.30;;;6.90;100.00;95822.78;5011500;28;19909;-50
2023/04/17 07:39:41;;;;;;;;;;;12.20;66.20;;;6.96;100.00;95826.34;5012087;28;19999;-51
2023/04/17 07:42:07;;;;;;;;;;;12.20;66.00;;;6.96;100.00;95821.06;5012298;28;20018;-53
2023/04/17 07:44:42;;;;;;;;;;;12.20;66.00;;;7.00;100.00;95826.69;5011318;28;20270;-52
2023/04/17 07:47:08;;;;;;;;;;;12.30;66.00;;;7.11;100.00;95826.66;5012281;28;19924;-53
2023/04/17 07:49:34;;;;;;;;;;;12.40;65.90;;;7.18;100.00;95831.81;5011585;28;19913;-51
2023/04/17 07:52:00;;;;;;;;;;;12.60;65.80;;;7.26;100.00;95827.97;5012231;28;19909;-51
2023/04/17 07:54:26;;;;;;;;;;;12.70;65.60;;;7.39;100.00;95831.09;5011915;28;19917;-51
2023/04/17 07:56:51;;;;;;;;;;;12.90;65.50;;;7.52;100.00;95831.84;5010880;28;20009;-53
2023/04/17 07:59:17;;;;;;;;;;;13.00;65.40;;;7.54;100.00;95833.22;5012135;28;19916;-51
2023/04/17 08:01:43;;;;;;;;;;;13.10;65.30;;;7.53;100.00;95834.28;5010836;28;19943;-49
2023/04/17 08:04:08;;;;;;;;;;;13.10;65.10;;;7.60;100.00;95829.63;5012260;28;19909;-55
2023/04/17 08:06:34;;;;;;;;;;;13.20;65.00;;;7.69;100.00;95835.34;5012369;28;19909;-50
2023/04/17 08:09:01;;;;;;;;;;;13.20;64.90;;;7.67;100.00;95831.31;5011087;28;19978;-51
2023/04/17 08:11:27;;;;;;;;;;;13.30;64.90;;;7.74;100.00;95824.84;5011685;28;19952;-51
2023/04/17 08:13:54;;;;;;;;;;;13.30;64.80;;;7.80;100.00;95829.19;5010869;28;19917;-50
2023/04/17 08:16:20;;;;;;;;;;;13.30;64.70;;;7.79;100.00;95829.41;5011760;28;19916;-53
2023/04/17 08:18:46;;;;;;;;;;;13.30;64.70;;;7.81;100.00;95832.63;5011933;28;19909;-50
2023/04/17 08:21:12;;;;;;;;;;;13.30;64.70;;;7.82;100.00;95834.22;5003315;28;20296;-51
2023/04/17 08:23:37;;;;;;;;;;;13.30;64.70;;;7.88;100.00;95841.22;4992334;28;19979;-50
2023/04/17 08:26:04;;;;;;;;;;;13.30;64.70;;;7.99;100.00;95836.88;4999782;28;19909;-53
2023/04/17 08:28:29;;;;;;;;;;;13.40;64.70;;;8.06;100.00;95834.88;5011712;28;20429;-54
2023/04/17 08:30:56;;;;;;;;;;;13.60;64.60;;;8.25;100.00;95833.56;5012874;28;19956;-50
2023/04/17 08:33:21;;;;;;;;;;;13.90;64.70;;;8.49;100.00;95833.38;5015271;28;20432;-51
2023/04/17 08:35:47;;;;;;;;;;;14.20;64.60;;;8.68;100.00;95831.25;5015938;28;19913;-50
2023/04/17 08:38:13;;;;;;;;;;;14.50;64.40;;;8.72;97.48;95835.03;5014857;28;20003;-53
2023/04/17 08:40:45;;;;;;;;;;;14.80;64.10;;;8.79;96.96;95833.78;5015236;28;20391;-53
2023/04/17 08:43:18;;;;;;;;;;;15.00;63.70;;;8.94;96.48;95827.06;5014740;28;19947;-55
2023/04/17 08:45:55;;;;;;;;;;;15.10;63.50;;;9.12;96.28;95834.72;5015635;28;20338;-52
2023/04/17 08:48:23;;;;;;;;;;;15.20;63.40;;;9.23;95.30;95830.31;5015773;28;19932;-50
2023/04/17 08:50:51;;;;;;;;;;;15.20;63.30;;;9.20;93.03;95831.59;5009537;28;19916;-50
2023/04/17 08:53:19;;;;;;;;;;;15.20;63.10;;;9.16;93.17;95829.72;4995571;28;20007;-51
2023/04/17 08:55:46;;;;;;;;;;;15.20;62.90;;;8.87;94.88;95831.75;5000486;28;19949;-52
2023/04/17 08:58:13;;;;;;;;;;;15.20;62.70;;;8.99;96.08;95830.59;5015300;28;20012;-52
2023/04/17 09:00:44;;;;;;;;;;;15.10;62.40;;;9.16;95.41;95833.16;5015056;28;20379;-50
2023/04/17 09:03:12;;;;;;;;;;;15.30;62.40;;;9.62;91.53;95827.50;5014176;28;19931;-54
2023/04/17 09:05:44;;;;;;;;;;;15.90;62.20;;;10.15;90.24;95826.63;5014740;28;19909;-50
2023/04/17 09:08:21;;;;;;;;;;;16.50;61.90;;;10.47;88.10;95827.66;5014070;28;19940;-54
2023/04/17 09:10:53;;;;;;;;;;;17.00;61.70;;;10.03;83.40;95817.19;5014577;28;19909;-58
2023/04/17 09:13:23;;;;;;;;;;;17.30;61.10;;;10.09;86.58;95824.16;5013933;28;20433;-50
2023/04/17 09:16:07;;;;;;;;;;;17.40;60.50;;;10.26;84.35;95829.34;5029996;28;20334;-56
2023/04/17 09:18:35;;;;;;;;;;;17.60;59.90;;;10.06;84.25;95828.16;5014930;28;19952;-54
2023/04/17 09:21:03;;;;;;;;;;;17.70;59.70;;;10.00;86.77;95828.34;5013688;28;19923;-54
2023/04/17 09:23:51;;;;;;;;;;;17.60;59.50;;;9.83;89.36;95828.47;5014724;28;19909;-52
2023/04/17 09:26:29;;;;;;;;;;;17.50;59.30;;;9.77;88.26;95824.97;5013273;28;20063;-52
2023/04/17 09:29:13;;;;;;;;;;;17.40;59.20;;;9.67;87.10;95833.66;5011502;28;19909;-52
2023/04/17 09:31:42;;;;;;;;;;;17.20;59.00;;;9.91;84.53;95823.50;5013000;28;19916;-53
2023/04/17 09:34:14;;;;;;;;;;;17.20;59.10;;;10.04;82.94;95821.47;5014351;28;20464;-51
2023/04/17 09:36:42;;;;;;;;;;;17.60;58.80;;;10.32;83.92;95823.03;5014420;28;19909;-52
2023/04/17 09:39:24;;;;;;;;;;;17.90;58.60;;;10.37;82.00;95828.38;4995224;28;19943;-55
2023/04/17 09:42:05;;;;;;;;;;;18.30;58.00;;;10.46;79.25;95821.50;4994529;28;19909;-58
2023/04/17 09:44:31;;;;;;;;;;;18.70;57.70;;;10.65;80.01;95828.03;5005460;28;20446;-55
2023/04/17 09:47:00;;;;;;;;;;;18.80;57.30;;;10.97;76.53;95818.28;5014362;28;20394;-55
2023/04/17 09:49:51;;;;;;;;;;;19.00;57.10;;;11.54;78.02;95825.41;5028193;28;19916;-58
2023/04/17 09:52:19;;;;;;;;;;;19.50;56.80;;;12.08;76.98;95818.78;4997688;28;19910;-57
2023/04/17 09:54:48;;;;;;;;;;;19.90;56.40;;;12.24;73.84;95823.03;4994365;28;19967;-56
2023/04/17 09:57:14;;;;;;;;;;;20.00;56.30;;;11.93;74.15;95816.91;5011258;28;19976;-58
2023/04/17 09:59:49;;;;;;;;;;;19.80;56.10;;;10.88;76.16;95810.81;5013743;28;19996;-55
2023/04/17 10:02:17;;;;;;;;;;;19.40;56.10;;;10.91;74.62;95814.03;5033844;28;19919;-55
2023/04/17 10:04:45;;;;;;;;;;;19.00;56.10;;;11.35;75.54;95811.75;5033711;28;19959;-56
2023/04/17 10:07:12;;;;;;;;;;;19.20;56.00;;;12.12;73.61;95815.28;5031043;28;19909;-57
2023/04/17 10:09:44;;;;;;;;;;;19.50;55.90;;;11.33;69.78;95806.66;5013694;28;20276;-56
2023/04/17 10:12:14;;;;;;;;;;;19.60;55.80;;;11.23;72.94;95805.84;5013654;28;19912;-56
2023/04/17 10:14:45;;;;;;;;;;;19.30;55.50;;;10.86;73.73;95804.13;5027098;28;19940;-51
2023/04/17 10:17:33;;;;;;;;;;;19.00;55.40;;;10.78;74.86;95797.44;5013699;28;19909;-57
2023/04/17 10:20:14;;;;;;;;;;;18.70;55.40;;;10.90;73.96;95802.53;5012146;28;19909;-53
2023/04/17 10:22:42;;;;;;;;;;;19.00;55.20;;;11.17;72.26;95805.03;5013283;28;19910;-55
2023/04/17 10:25:10;;;;;;;;;;;19.20;55.10;;;11.19;70.98;95804.75;5012818;28;20015;-51
2023/04/17 10:27:36;;;;;;;;;;;19.20;54.90;;;11.43;71.83;95800.56;5013364;28;19909;-54
2023/04/17 10:30:06;;;;;;;;;;;19.30;54.80;;;11.20;70.39;95796.50;5013331;28;19913;-54
2023/04/17 10:32:33;;;;;;;;;;;19.30;54.70;;;11.13;69.77;95795.97;5012429;28;19909;-51
2023/04/17 10:35:00;;;;;;;;;;;19.40;54.50;;;11.60;67.70;95797.66;5013314;28;19913;-53
2023/04/17 10:37:51;;;;;;;;;;;19.80;54.30;;;12.52;65.63;95797.63;5012192;28;19966;-50
2023/04/17 10:40:32;;;;;;;;;;;20.40;54.00;;;12.92;64.33;95793.22;5013649;28;20252;-55
2023/04/17 10:43:01;;;;;;;;;;;21.10;53.20;;;13.02;61.66;95790.47;5011313;28;19920;-52
2023/04/17 10:45:59;;;;;;;;;;;21.60;52.40;;;13.36;61.10;95789.81;5012870;28;20272;-58
2023/04/17 10:48:46;;;;;;;;;;;22.10;51.60;;;13.35;58.22;95780.16;5013133;28;19908;-56
2023/04/17 10:51:23;;;;;;;;;;;22.10;51.00;;;13.60;58.90;95776.53;5011528;28;19945;-54
2023/04/17 10:53:50;;;;;;;;;;;22.00;51.00;;;13.56;60.24;95770.13;5011963;28;19913;-54
2023/04/17 10:56:25;;;;;;;;;;;22.40;50.80;;;13.55;60.41;95773.91;5011379;28;19955;-52
2023/04/17 10:59:05;;;;;;;;;;;22.70;50.10;;;13.30;61.05;95781.00;5012675;28;20371;-58
2023/04/17 11:01:39;;;;;;;;;;;22.40;50.00;;;12.77;62.65;95771.88;5005798;28;19917;-51
2023/04/17 11:04:06;;;;;;;;;;;21.90;50.00;;;12.24;65.50;95770.41;5013106;28;19912;-56
2023/04/17 11:06:38;;;;;;;;;;;21.80;50.00;;;12.83;62.59;95766.25;5012738;28;19940;-55
2023/04/17 11:09:09;;;;;;;;;;;22.10;49.70;;;13.34;61.43;95765.19;5011645;28;19909;-56
2023/04/17 11:11:42;;;;;;;;;;;22.40;49.60;;;13.52;59.86;95763.75;5012543;28;19963;-54
2023/04/17 11:14:21;;;;;;;;;;;22.90;49.50;;;14.07;58.57;95759.00;5011475;28;19937;-56
2023/04/17 11:16:50;;;;;;;;;;;23.40;48.90;;;14.34;57.06;95758.50;5012575;28;19909;-51
2023/04/17 11:19:22;;;;;;;;;;;23.70;48.30;;;14.40;60.40;95759.25;5011466;28;19909;-54